Time;durP1;ratioP1;P1;durP2;ratioP2;P2;SDS_P1;SDS_P2;PMS_P1;PMS_P2;Temp;Humidity;BMP_temperature;BMP_pressure;BME280_temperature;BME280_humidity;BME280_pressure;Samples;Min_cycle;Max_cycle;Signal;HPM_P1;HPM_P2
2022/04/23 00:02:11;;;;;;;19.92;17.80;;;13.10;67.10;;;;;;5112966;28;20270;-57
2022/04/23 00:04:38;;;;;;;21.80;19.50;;;13.20;66.90;;;;;;5113283;28;20295;-59
2022/04/23 00:07:06;;;;;;;20.92;18.88;;;13.20;66.70;;;;;;5113167;28;20318;-59
2022/04/23 00:09:32;;;;;;;20.50;18.38;;;13.10;67.50;;;;;;5113067;28;20215;-57
2022/04/23 00:11:59;;;;;;;19.63;17.60;;;13.10;67.80;;;;;;5113160;28;20689;-59
2022/04/23 00:14:27;;;;;;;20.40;18.27;;;13.00;67.50;;;;;;5113125;28;20203;-59
2022/04/23 00:16:54;;;;;;;21.35;19.20;;;12.90;67.80;;;;;;5112212;28;20199;-59
2022/04/23 00:19:22;;;;;;;18.42;16.52;;;12.90;67.80;;;;;;5113149;28;20680;-59
2022/04/23 00:21:49;;;;;;;18.48;16.67;;;12.90;68.10;;;;;;5113160;28;20231;-59
2022/04/23 00:24:16;;;;;;;18.60;16.70;;;12.80;68.50;;;;;;5112943;28;20743;-59
2022/04/23 00:26:43;;;;;;;18.40;16.70;;;12.80;68.90;;;;;;5113083;28;20327;-59
2022/04/23 00:29:10;;;;;;;19.70;17.60;;;12.70;69.10;;;;;;5113072;28;20207;-59
2022/04/23 00:31:37;;;;;;;18.85;16.73;;;12.70;69.50;;;;;;5111691;28;20615;-59
2022/04/23 00:34:04;;;;;;;18.80;16.90;;;12.70;69.20;;;;;;5113023;28;20324;-57
2022/04/23 00:36:32;;;;;;;18.98;17.08;;;12.70;68.90;;;;;;5112819;28;20214;-58
2022/04/23 00:38:59;;;;;;;18.30;16.40;;;12.70;69.60;;;;;;5112955;28;20264;-59
2022/04/23 00:44:16;;;;;;;18.15;16.17;;;12.60;69.70;;;;;;5096949;28;20659;-59
2022/04/23 00:46:44;;;;;;;18.67;16.65;;;12.60;69.70;;;;;;5111488;28;20656;-59
2022/04/23 00:49:11;;;;;;;18.35;16.60;;;12.50;70.00;;;;;;5112703;28;20658;-59
2022/04/23 00:51:40;;;;;;;17.88;16.15;;;12.50;70.10;;;;;;5112781;28;20299;-59
2022/04/23 00:54:08;;;;;;;18.55;16.60;;;12.50;70.10;;;;;;5112722;28;20250;-58
2022/04/23 00:56:36;;;;;;;17.90;16.10;;;12.50;70.50;;;;;;5112818;28;20305;-59
2022/04/23 00:59:05;;;;;;;18.35;16.35;;;12.50;70.30;;;;;;5112842;28;20206;-59
2022/04/23 01:01:32;;;;;;;18.35;16.55;;;12.50;69.60;;;;;;5111243;28;20204;-59
2022/04/23 01:04:02;;;;;;;18.33;16.50;;;12.50;69.80;;;;;;5112520;28;20227;-59
2022/04/23 01:06:33;;;;;;;18.25;16.35;;;12.40;70.40;;;;;;5112605;28;20230;-59
2022/04/23 01:09:03;;;;;;;16.15;14.40;;;12.40;70.30;;;;;;5112806;28;20253;-59
2022/04/23 01:11:30;;;;;;;16.85;15.30;;;12.40;70.30;;;;;;5115472;28;20286;-59
2022/04/23 01:13:57;;;;;;;18.05;16.15;;;12.40;70.90;;;;;;5116400;28;20278;-60
2022/04/23 01:16:23;;;;;;;18.42;16.52;;;12.40;70.50;;;;;;5114776;28;20199;-59
2022/04/23 01:18:50;;;;;;;18.35;16.55;;;12.30;71.40;;;;;;5116271;28;20238;-57
2022/04/23 01:21:19;;;;;;;17.17;15.38;;;12.20;71.70;;;;;;5116265;28;20550;-59
2022/04/23 01:23:48;;;;;;;18.30;16.35;;;12.10;71.90;;;;;;5116033;28;20310;-59
2022/04/23 01:26:24;;;;;;;17.60;15.93;;;12.10;72.30;;;;;;5116165;28;20223;-59
2022/04/23 01:28:51;;;;;;;18.38;16.45;;;12.10;72.10;;;;;;5116000;28;20660;-59
2022/04/23 01:31:18;;;;;;;18.88;16.63;;;12.00;72.30;;;;;;5114595;28;20207;-59
2022/04/23 01:33:44;;;;;;;17.30;15.48;;;12.00;72.10;;;;;;5115954;28;20230;-58
2022/04/23 01:36:14;;;;;;;17.15;15.57;;;12.00;72.20;;;;;;5115843;28;20319;-58
2022/04/23 01:38:42;;;;;;;17.27;15.57;;;11.80;73.10;;;;;;5115974;28;20231;-59
2022/04/23 01:41:09;;;;;;;16.15;14.55;;;11.80;72.40;;;;;;5115800;28;20282;-59
2022/04/23 01:43:36;;;;;;;17.95;15.95;;;11.90;72.40;;;;;;5115698;28;20294;-59
2022/04/23 01:46:03;;;;;;;17.52;15.77;;;11.70;73.20;;;;;;5114641;28;20204;-57
2022/04/23 01:48:30;;;;;;;19.65;16.77;;;11.70;73.30;;;;;;5115544;28;20203;-59
2022/04/23 01:50:57;;;;;;;17.55;15.70;;;11.70;72.60;;;;;;5115700;28;20214;-59
2022/04/23 01:53:25;;;;;;;18.45;16.45;;;11.70;72.90;;;;;;5115586;28;20676;-59
2022/04/23 01:55:54;;;;;;;19.70;17.58;;;11.60;73.80;;;;;;5115433;28;20575;-58
2022/04/23 01:58:22;;;;;;;20.08;17.98;;;11.50;73.90;;;;;;5115357;28;20226;-59
2022/04/23 02:00:49;;;;;;;18.45;16.45;;;11.50;73.30;;;;;;5114327;28;20207;-59
2022/04/23 02:03:16;;;;;;;19.83;16.98;;;11.50;73.70;;;;;;5115132;28;20594;-59
2022/04/23 02:05:43;;;;;;;18.23;16.33;;;11.60;72.90;;;;;;5115293;28;20676;-59
2022/04/23 02:08:10;;;;;;;18.45;16.50;;;11.50;73.50;;;;;;5115287;28;20204;-59
2022/04/23 02:10:37;;;;;;;19.70;17.42;;;11.50;73.40;;;;;;5115181;28;20206;-58
2022/04/23 02:13:06;;;;;;;21.25;17.05;;;11.40;73.80;;;;;;5115183;28;20650;-59
2022/04/23 02:15:33;;;;;;;20.48;17.02;;;11.50;73.40;;;;;;5113879;28;20210;-59
2022/04/23 02:18:00;;;;;;;20.17;17.67;;;11.40;74.60;;;;;;5114863;28;20322;-59
2022/04/23 02:20:28;;;;;;;21.25;17.40;;;11.30;74.40;;;;;;5115009;28;20206;-59
2022/04/23 02:22:55;;;;;;;21.45;18.13;;;11.30;73.80;;;;;;5114980;28;20223;-60
2022/04/23 02:25:22;;;;;;;19.60;17.02;;;11.40;73.60;;;;;;5114940;28;20291;-58
2022/04/23 02:27:50;;;;;;;21.15;17.52;;;11.30;74.00;;;;;;5115034;28;20210;-59
2022/04/23 02:30:19;;;;;;;20.98;17.63;;;11.30;73.70;;;;;;5113800;28;20203;-59
2022/04/23 02:32:47;;;;;;;21.08;17.95;;;11.40;73.90;;;;;;5114748;28;20209;-58
2022/04/23 02:35:16;;;;;;;20.95;18.52;;;11.30;74.10;;;;;;5114874;28;20244;-58
2022/04/23 02:37:44;;;;;;;21.98;18.52;;;11.30;73.80;;;;;;5114679;28;20238;-59
2022/04/23 02:40:12;;;;;;;20.52;18.15;;;11.30;73.40;;;;;;5114736;28;20229;-59
2022/04/23 02:42:39;;;;;;;22.02;17.98;;;11.30;73.70;;;;;;5114548;28;20570;-58
2022/04/23 02:45:08;;;;;;;26.15;20.23;;;11.20;74.90;;;;;;5113336;28;20722;-59
2022/04/23 02:47:44;;;;;;;23.92;18.48;;;11.20;74.10;;;;;;5114343;28;20669;-58
2022/04/23 02:50:11;;;;;;;22.88;18.13;;;11.20;74.00;;;;;;5114348;28;20209;-59
2022/04/23 02:52:40;;;;;;;22.23;17.30;;;11.20;74.80;;;;;;5114357;28;20199;-58
2022/04/23 02:55:08;;;;;;;22.90;18.48;;;11.10;75.00;;;;;;5114507;28;20591;-59
2022/04/23 02:57:35;;;;;;;21.48;18.73;;;11.00;75.90;;;;;;5114342;28;20233;-58
2022/04/23 03:00:04;;;;;;;22.70;18.58;;;11.00;76.10;;;;;;5112996;28;20683;-58
2022/04/23 03:02:36;;;;;;;24.23;18.83;;;10.80;76.30;;;;;;5113876;28;20333;-58
2022/04/23 03:05:05;;;;;;;21.85;17.98;;;10.80;76.50;;;;;;5114140;28;20203;-57
2022/04/23 03:07:33;;;;;;;23.27;18.58;;;10.90;75.80;;;;;;5114272;28;20207;-58
2022/04/23 03:10:00;;;;;;;24.42;18.90;;;10.90;76.50;;;;;;5114207;28;20206;-58
2022/04/23 03:12:27;;;;;;;20.85;17.88;;;10.80;76.50;;;;;;5114045;28;20202;-57
2022/04/23 03:14:53;;;;;;;21.95;18.60;;;10.90;75.80;;;;;;5112976;28;20232;-58
2022/04/23 03:17:20;;;;;;;24.00;19.02;;;10.90;76.30;;;;;;5113628;28;20520;-59
2022/04/23 03:19:47;;;;;;;20.20;17.15;;;10.90;75.50;;;;;;5113947;28;20672;-58
2022/04/23 03:22:16;;;;;;;21.30;17.52;;;10.90;75.40;;;;;;5113829;28;20223;-59
2022/04/23 03:24:44;;;;;;;24.67;19.00;;;11.00;75.00;;;;;;5113915;28;20273;-58
2022/04/23 03:27:11;;;;;;;24.50;18.95;;;11.00;75.70;;;;;;5113922;28;20692;-58
2022/04/23 03:29:38;;;;;;;24.15;18.75;;;10.90;75.20;;;;;;5112544;28;20233;-57
2022/04/23 03:32:06;;;;;;;23.95;19.67;;;10.90;75.70;;;;;;5113555;28;20238;-58
2022/04/23 03:34:33;;;;;;;23.05;18.02;;;10.80;76.40;;;;;;5113292;28;20254;-59
2022/04/23 03:36:59;;;;;;;22.90;18.10;;;10.80;76.00;;;;;;5113536;28;20226;-57
2022/04/23 03:39:28;;;;;;;24.90;19.05;;;10.80;75.90;;;;;;5113627;28;20202;-59
2022/04/23 03:41:55;;;;;;;22.10;17.60;;;10.70;76.90;;;;;;5113607;28;20656;-58
2022/04/23 03:44:22;;;;;;;21.30;17.42;;;10.70;76.40;;;;;;5113464;28;20248;-58
2022/04/23 03:46:49;;;;;;;22.05;17.73;;;10.70;77.10;;;;;;5112096;28;20658;-59
2022/04/23 03:49:15;;;;;;;20.45;16.50;;;10.70;76.60;;;;;;5113433;28;20234;-58
2022/04/23 03:51:42;;;;;;;23.92;18.15;;;10.60;77.00;;;;;;5113518;28;20230;-58
2022/04/23 03:54:10;;;;;;;21.65;17.90;;;10.60;77.40;;;;;;5113435;28;20212;-59
2022/04/23 03:56:38;;;;;;;19.90;16.70;;;10.50;77.50;;;;;;5113278;28;20198;-58
2022/04/23 03:59:07;;;;;;;20.27;17.02;;;10.40;77.60;;;;;;5113185;28;20237;-58
2022/04/23 04:01:34;;;;;;;21.08;16.65;;;10.40;77.90;;;;;;5111868;28;20217;-59
2022/04/23 04:04:01;;;;;;;21.60;17.52;;;10.30;78.60;;;;;;5113027;28;20332;-59
2022/04/23 04:06:28;;;;;;;23.77;18.42;;;10.20;78.90;;;;;;5113300;28;20212;-58
2022/04/23 04:08:55;;;;;;;22.75;18.30;;;10.20;78.60;;;;;;5113175;28;20205;-59
2022/04/23 04:11:23;;;;;;;19.02;16.23;;;10.30;77.80;;;;;;5113055;28;20673;-58
2022/04/23 04:13:53;;;;;;;22.55;17.65;;;10.30;78.50;;;;;;5113169;28;20232;-58
2022/04/23 04:16:22;;;;;;;18.55;15.90;;;10.30;78.10;;;;;;5111827;28;20202;-59
2022/04/23 04:18:48;;;;;;;22.77;19.00;;;10.40;77.50;;;;;;5112991;28;20649;-58
2022/04/23 04:21:16;;;;;;;21.63;17.23;;;10.40;77.60;;;;;;5113028;28;20245;-59
2022/04/23 04:23:43;;;;;;;22.65;17.40;;;10.40;78.20;;;;;;5113039;28;20200;-59
2022/04/23 04:26:09;;;;;;;20.73;17.52;;;10.30;78.40;;;;;;5113056;28;20281;-59
2022/04/23 04:28:36;;;;;;;19.88;16.42;;;10.40;77.60;;;;;;5113066;28;20683;-59
2022/04/23 04:33:49;;;;;;;22.52;16.60;;;10.40;77.30;;;;;;5113022;28;20205;-59
2022/04/23 04:36:16;;;;;;;21.52;16.05;;;10.30;78.00;;;;;;5113095;28;20205;-59
2022/04/23 04:38:43;;;;;;;21.08;17.45;;;10.30;78.10;;;;;;5112804;28;20660;-59
2022/04/23 04:41:10;;;;;;;20.88;16.60;;;10.30;78.30;;;;;;5113053;28;20636;-58
2022/04/23 04:43:37;;;;;;;20.98;16.58;;;10.30;77.90;;;;;;5112874;28;20237;-59
2022/04/23 04:46:05;;;;;;;21.67;16.55;;;10.30;78.70;;;;;;5113970;28;20257;-58
2022/04/23 04:48:32;;;;;;;20.80;17.35;;;10.20;78.60;;;;;;5116703;28;20720;-59
2022/04/23 04:50:59;;;;;;;24.27;17.50;;;10.30;78.20;;;;;;5116866;28;20205;-59
2022/04/23 04:53:26;;;;;;;19.67;16.25;;;10.30;78.60;;;;;;5116733;28;20225;-59
2022/04/23 04:55:52;;;;;;;21.98;16.63;;;10.40;77.80;;;;;;5116771;28;20209;-59
2022/04/23 04:58:20;;;;;;;19.52;15.75;;;10.40;78.60;;;;;;5116743;28;20310;-60
2022/04/23 05:00:47;;;;;;;23.58;16.63;;;10.30;78.80;;;;;;5115374;28;20620;-59
2022/04/23 05:03:15;;;;;;;20.35;16.88;;;10.30;78.80;;;;;;5116264;28;20290;-58
2022/04/23 05:05:44;;;;;;;20.20;16.20;;;10.40;78.90;;;;;;5116538;28;20205;-58
2022/04/23 05:08:11;;;;;;;19.75;16.40;;;10.30;79.20;;;;;;5116569;28;20213;-59
2022/04/23 05:10:38;;;;;;;21.52;16.27;;;10.30;79.50;;;;;;5116520;28;20242;-59
2022/04/23 05:13:05;;;;;;;18.90;15.45;;;10.40;79.10;;;;;;5116402;28;20294;-58
2022/04/23 05:15:31;;;;;;;21.52;17.73;;;10.40;80.00;;;;;;5115072;28;20635;-58
2022/04/23 05:17:59;;;;;;;19.50;15.75;;;10.40;79.50;;;;;;5116279;28;20325;-59
2022/04/23 05:20:27;;;;;;;19.67;15.52;;;10.40;80.10;;;;;;5116139;28;20688;-59
2022/04/23 05:22:54;;;;;;;18.65;15.27;;;10.40;80.00;;;;;;5116215;28;20225;-58
2022/04/23 05:25:21;;;;;;;21.67;16.38;;;10.40;79.90;;;;;;5116134;28;20234;-59
2022/04/23 05:27:49;;;;;;;21.85;16.38;;;10.50;80.00;;;;;;5116017;28;20241;-58
2022/04/23 05:30:15;;;;;;;18.58;15.98;;;10.40;80.20;;;;;;5114773;28;20240;-58
2022/04/23 05:32:42;;;;;;;20.13;15.45;;;10.40;80.00;;;;;;5115824;27;20217;-59
2022/04/23 05:35:09;;;;;;;21.08;15.80;;;10.60;79.60;;;;;;5115900;28;20704;-59
2022/04/23 05:37:38;;;;;;;18.08;15.32;;;10.70;78.80;;;;;;5115838;28;20225;-58
2022/04/23 05:40:06;;;;;;;17.52;14.45;;;10.90;78.40;;;;;;5115847;28;20206;-59
2022/04/23 05:42:33;;;;;;;19.10;15.20;;;10.90;78.30;;;;;;5115880;28;20212;-57
2022/04/23 05:45:00;;;;;;;19.67;15.77;;;11.00;78.20;;;;;;5114437;28;20674;-58
2022/04/23 05:47:27;;;;;;;17.98;14.65;;;11.00;77.80;;;;;;5115419;28;20619;-58
2022/04/23 05:49:53;;;;;;;19.55;14.73;;;10.90;78.10;;;;;;5115705;28;20625;-59
2022/04/23 05:52:20;;;;;;;16.65;14.38;;;11.00;77.70;;;;;;5115592;28;20653;-58
2022/04/23 05:54:48;;;;;;;17.38;15.18;;;11.00;77.70;;;;;;5115592;28;20239;-58
2022/04/23 05:57:15;;;;;;;17.38;15.25;;;11.00;77.20;;;;;;5115195;28;20205;-59
2022/04/23 05:59:42;;;;;;;19.25;15.80;;;11.10;77.20;;;;;;5114175;28;20672;-58
2022/04/23 06:02:13;;;;;;;19.63;16.33;;;11.10;77.10;;;;;;5114962;28;20261;-57
2022/04/23 06:04:40;;;;;;;16.85;13.50;;;11.10;76.70;;;;;;5115340;28;20609;-59
2022/04/23 06:07:06;;;;;;;18.52;15.30;;;11.10;76.60;;;;;;5115379;28;20297;-58
2022/04/23 06:09:33;;;;;;;19.65;14.50;;;11.20;76.70;;;;;;5115442;28;20208;-59
2022/04/23 06:12:02;;;;;;;15.82;14.10;;;11.30;76.80;;;;;;5115326;28;20235;-59
2022/04/23 06:14:28;;;;;;;17.52;15.00;;;11.30;75.80;;;;;;5115200;28;20238;-58
2022/04/23 06:16:55;;;;;;;16.52;14.48;;;11.10;76.20;;;;;;5113918;28;20261;-58
2022/04/23 06:19:22;;;;;;;15.98;13.82;;;11.00;76.90;;;;;;5114889;28;20323;-59
2022/04/23 06:21:49;;;;;;;16.95;14.02;;;10.90;77.60;;;;;;5115057;28;20224;-57
2022/04/23 06:24:16;;;;;;;16.33;14.20;;;10.90;78.10;;;;;;5115059;28;20627;-58
2022/04/23 06:26:43;;;;;;;16.88;14.93;;;10.90;77.70;;;;;;5114993;28;20243;-57
2022/04/23 06:29:11;;;;;;;17.80;14.50;;;10.90;77.60;;;;;;5114773;28;20204;-59
2022/04/23 06:31:38;;;;;;;20.45;16.17;;;10.90;77.30;;;;;;5113495;28;20548;-59
2022/04/23 06:34:04;;;;;;;15.35;13.75;;;11.00;77.30;;;;;;5114850;28;20237;-58
2022/04/23 06:36:33;;;;;;;17.02;14.93;;;11.00;77.10;;;;;;5115059;28;20195;-58
2022/04/23 06:38:59;;;;;;;16.00;13.82;;;11.00;76.70;;;;;;5114696;28;20229;-58
2022/04/23 06:41:26;;;;;;;14.98;13.35;;;11.10;76.70;;;;;;5114676;28;20285;-58
2022/04/23 06:43:53;;;;;;;16.67;13.60;;;11.20;76.30;;;;;;5114652;28;20286;-59
2022/04/23 06:46:21;;;;;;;15.82;14.20;;;11.30;75.60;;;;;;5113262;28;20253;-59
2022/04/23 06:48:48;;;;;;;16.02;13.90;;;11.30;75.50;;;;;;5114447;28;20297;-58
2022/04/23 06:51:16;;;;;;;15.65;14.13;;;11.40;75.30;;;;;;5114530;28;20211;-59
2022/04/23 06:53:43;;;;;;;15.55;14.02;;;11.60;75.00;;;;;;5114437;28;20257;-57
2022/04/23 06:56:09;;;;;;;18.33;14.90;;;11.50;74.70;;;;;;5114314;28;20554;-59
2022/04/23 06:58:36;;;;;;;13.43;12.07;;;11.50;73.90;;;;;;5114387;28;20237;-59
2022/04/23 07:01:04;;;;;;;15.50;13.43;;;11.40;74.30;;;;;;5113086;28;20588;-58
2022/04/23 07:03:32;;;;;;;15.50;13.40;;;11.30;75.00;;;;;;5114027;28;20227;-58
2022/04/23 07:05:59;;;;;;;14.85;13.35;;;11.30;74.30;;;;;;5114297;28;20295;-59
2022/04/23 07:08:26;;;;;;;15.35;13.70;;;11.30;74.80;;;;;;5113530;28;20304;-57
2022/04/23 07:10:53;;;;;;;14.10;12.70;;;11.30;75.40;;;;;;5114054;28;20238;-59
2022/04/23 07:13:20;;;;;;;15.15;13.27;;;11.30;74.90;;;;;;5113994;28;20665;-58
2022/04/23 07:15:47;;;;;;;14.48;12.95;;;11.30;74.90;;;;;;5112679;28;20294;-58
2022/04/23 07:18:13;;;;;;;14.48;12.88;;;11.50;74.30;;;;;;5113869;28;20227;-58
2022/04/23 07:20:41;;;;;;;13.80;12.40;;;11.30;74.30;;;;;;5114038;28;20258;-58
2022/04/23 07:25:54;;;;;;;14.43;12.52;;;11.30;74.30;;;;;;5114029;28;20199;-58
2022/04/23 07:28:21;;;;;;;13.45;12.15;;;11.40;74.60;;;;;;5113876;28;20299;-58
2022/04/23 07:30:48;;;;;;;15.00;13.40;;;11.50;74.50;;;;;;5112474;28;20207;-59
2022/04/23 07:37:28;;;;;;;14.80;13.32;;;11.50;74.40;;;;;;5113720;28;20204;-57
2022/04/23 07:38:48;;;;;;;16.55;13.80;;;11.60;73.50;;;;;;5113512;28;20229;-58
2022/04/23 07:41:15;;;;;;;15.02;13.45;;;11.60;73.60;;;;;;5113708;28;20195;-59
2022/04/23 07:43:42;;;;;;;16.02;13.05;;;11.60;73.60;;;;;;5113591;28;20627;-59
2022/04/23 07:46:08;;;;;;;16.17;13.60;;;11.60;74.60;;;;;;5112120;28;20604;-59
2022/04/23 07:48:35;;;;;;;16.08;14.40;;;11.70;73.90;;;;;;5113254;28;20242;-59
2022/04/23 07:51:03;;;;;;;15.18;13.57;;;11.70;73.70;;;;;;5113494;28;20233;-59
2022/04/23 07:53:30;;;;;;;15.85;14.32;;;11.80;73.40;;;;;;5113556;28;20291;-58
2022/04/23 07:55:57;;;;;;;15.75;14.05;;;11.80;73.70;;;;;;5113350;28;20742;-58
2022/04/23 07:58:24;;;;;;;16.40;13.05;;;11.90;72.70;;;;;;5113345;28;20626;-58
2022/04/23 08:00:51;;;;;;;14.95;13.40;;;12.00;72.60;;;;;;5112109;28;20199;-59
2022/04/23 08:03:18;;;;;;;15.82;14.10;;;12.00;72.90;;;;;;5112964;28;20290;-60
2022/04/23 08:05:45;;;;;;;13.75;11.27;;;12.10;72.30;;;;;;5113262;28;20249;-59
2022/04/23 08:08:17;;;;;;;17.00;14.07;;;12.30;72.50;;;;;;5113245;28;20211;-58
2022/04/23 08:10:44;;;;;;;14.68;13.18;;;12.40;71.70;;;;;;5113604;28;20203;-59
2022/04/23 08:13:11;;;;;;;15.07;13.55;;;12.50;72.10;;;;;;5113232;28;20231;-57
2022/04/23 08:15:39;;;;;;;14.65;13.10;;;12.60;71.80;;;;;;5111768;28;20544;-58
2022/04/23 08:18:06;;;;;;;13.82;12.43;;;12.60;71.80;;;;;;5112948;28;20222;-58
2022/04/23 08:20:33;;;;;;;14.50;13.10;;;12.70;71.60;;;;;;5116449;28;20219;-56
2022/04/23 08:23:02;;;;;;;15.30;13.80;;;12.70;70.30;;;;;;5117397;28;20207;-58
2022/04/23 08:25:30;;;;;;;15.20;13.65;;;12.80;70.00;;;;;;5117511;28;20335;-58
2022/04/23 08:30:34;;;;;;;14.95;13.40;;;12.80;70.80;;;;;;5117289;28;20196;-58
2022/04/23 08:30:44;;;;;;;14.45;12.95;;;12.80;70.50;;;;;;5115719;28;20662;-59
2022/04/23 08:33:11;;;;;;;14.30;12.80;;;12.90;70.60;;;;;;5117082;28;20218;-56
2022/04/23 08:35:40;;;;;;;15.32;13.73;;;12.90;70.30;;;;;;5117091;28;20950;-59
2022/04/23 08:38:08;;;;;;;14.85;13.35;;;12.90;70.60;;;;;;5116934;28;20295;-59
2022/04/23 08:40:39;;;;;;;14.93;12.50;;;12.90;69.80;;;;;;5116934;28;20280;-59
2022/04/23 08:43:07;;;;;;;14.82;12.75;;;12.90;70.40;;;;;;5117058;28;20206;-57
2022/04/23 08:45:37;;;;;;;15.40;13.90;;;12.90;70.50;;;;;;5115655;28;20280;-58
2022/04/23 08:48:09;;;;;;;15.45;13.95;;;12.80;69.90;;;;;;5116711;28;20203;-58
2022/04/23 08:50:37;;;;;;;15.30;13.73;;;12.70;70.70;;;;;;5116762;28;20235;-58
2022/04/23 08:53:08;;;;;;;14.93;13.32;;;12.70;71.40;;;;;;5116698;28;20282;-56
2022/04/23 08:55:37;;;;;;;14.30;12.90;;;12.70;71.60;;;;;;5116746;28;20206;-59
2022/04/23 08:58:04;;;;;;;14.75;13.23;;;12.80;69.50;;;;;;5116845;28;20594;-58
2022/04/23 09:00:30;;;;;;;16.15;14.15;;;12.70;70.20;;;;;;5115283;28;20233;-58
2022/04/23 09:02:57;;;;;;;15.43;13.88;;;12.80;70.60;;;;;;5116290;28;20231;-57
2022/04/23 09:05:27;;;;;;;15.27;12.80;;;12.90;69.70;;;;;;5116587;28;20231;-58
2022/04/23 09:07:56;;;;;;;14.25;12.80;;;13.00;70.10;;;;;;5116435;28;20204;-58
2022/04/23 09:10:44;;;;;;;15.32;13.82;;;13.10;70.10;;;;;;5116470;28;20277;-58
2022/04/23 09:13:11;;;;;;;15.35;13.95;;;13.20;69.80;;;;;;5116497;28;20203;-57
2022/04/23 09:24:09;;;;;;;16.15;14.75;;;13.30;68.40;;;;;;5116422;28;20590;-58
2022/04/23 09:26:40;;;;;;;15.52;14.00;;;13.40;69.40;;;;;;5116062;28;20206;-57
2022/04/23 09:29:14;;;;;;;14.95;13.48;;;13.30;69.70;;;;;;5115972;28;20677;-57
2022/04/23 09:31:41;;;;;;;14.45;12.80;;;13.40;69.00;;;;;;5113950;28;20251;-59
2022/04/23 09:34:16;;;;;;;14.60;13.20;;;13.50;69.10;;;;;;5115741;28;20648;-58
2022/04/23 09:36:49;;;;;;;15.38;13.88;;;13.50;68.70;;;;;;5115945;28;20194;-58
2022/04/23 09:39:28;;;;;;;14.65;12.70;;;13.60;68.90;;;;;;5115541;28;20814;-57
2022/04/23 09:42:11;;;;;;;16.20;14.70;;;13.70;68.30;;;;;;5115596;28;20662;-57
2022/04/23 09:44:38;;;;;;;16.60;15.00;;;13.50;67.60;;;;;;5115027;28;20206;-58
2022/04/23 09:47:06;;;;;;;16.00;14.40;;;13.30;67.60;;;;;;5115013;28;20200;-57
2022/04/23 09:49:33;;;;;;;16.20;14.60;;;13.30;68.30;;;;;;5115386;28;20210;-57
2022/04/23 09:52:05;;;;;;;14.85;13.23;;;13.30;67.80;;;;;;5115776;28;20200;-58
2022/04/23 09:54:33;;;;;;;14.57;13.05;;;13.40;68.40;;;;;;5115697;28;20199;-57
2022/04/23 09:57:02;;;;;;;12.88;11.65;;;13.60;67.70;;;;;;5115598;28;20206;-58
2022/04/23 09:59:29;;;;;;;13.82;12.43;;;13.70;68.20;;;;;;5115400;28;20231;-57
2022/04/23 10:01:56;;;;;;;13.50;12.30;;;13.60;67.70;;;;;;5113910;27;20211;-59
2022/04/23 10:04:24;;;;;;;14.10;12.43;;;13.60;69.50;;;;;;5115256;28;20199;-59
2022/04/23 10:06:52;;;;;;;11.90;10.70;;;13.70;68.20;;;;;;5115360;28;20276;-57
2022/04/23 10:09:22;;;;;;;14.50;13.10;;;13.80;68.00;;;;;;5115237;28;20206;-58
2022/04/23 10:11:51;;;;;;;13.43;12.13;;;14.00;68.00;;;;;;5115208;28;20199;-58
2022/04/23 10:14:22;;;;;;;13.80;12.50;;;14.10;67.40;;;;;;5115022;28;20253;-57
2022/04/23 10:16:50;;;;;;;14.20;12.90;;;14.20;67.10;;;;;;5113527;28;20292;-57
2022/04/23 10:19:17;;;;;;;12.13;11.02;;;14.30;67.60;;;;;;5114812;28;20231;-56
2022/04/23 10:21:54;;;;;;;12.90;11.32;;;14.30;66.60;;;;;;5114943;28;20199;-58
2022/04/23 10:24:29;;;;;;;12.55;11.40;;;14.30;66.80;;;;;;5114907;28;20199;-58
2022/04/23 10:26:58;;;;;;;12.52;11.32;;;14.30;66.90;;;;;;5114794;28;20223;-59
2022/04/23 10:29:31;;;;;;;12.55;11.35;;;14.40;66.60;;;;;;5114798;28;20325;-57
2022/04/23 10:32:20;;;;;;;11.98;10.98;;;14.40;66.00;;;;;;5113520;28;20202;-58
2022/04/23 10:34:47;;;;;;;12.90;11.80;;;14.50;66.90;;;;;;5114782;28;20210;-58
2022/04/23 10:37:16;;;;;;;14.15;12.85;;;14.50;66.10;;;;;;5114924;28;20221;-58
2022/04/23 10:39:44;;;;;;;13.30;12.10;;;14.70;65.40;;;;;;5114578;28;20272;-58
2022/04/23 10:42:14;;;;;;;14.07;12.80;;;14.90;64.60;;;;;;5114202;28;20235;-58
2022/04/23 10:44:43;;;;;;;12.10;11.00;;;14.80;65.40;;;;;;5113327;28;20200;-57
2022/04/23 10:47:16;;;;;;;13.85;12.73;;;14.90;65.60;;;;;;5114646;28;20206;-58
2022/04/23 10:49:43;;;;;;;14.35;12.85;;;15.00;64.30;;;;;;5114536;28;20200;-57
2022/04/23 10:52:10;;;;;;;14.23;13.03;;;15.00;65.00;;;;;;5114365;28;20208;-59
2022/04/23 10:54:57;;;;;;;13.67;12.40;;;15.10;65.00;;;;;;5114359;28;20445;-57
2022/04/23 10:57:25;;;;;;;14.50;13.10;;;15.20;64.80;;;;;;5114248;28;20795;-58
2022/04/23 10:59:53;;;;;;;12.95;11.85;;;15.00;65.30;;;;;;5112857;28;20841;-59
2022/04/23 11:02:32;;;;;;;12.73;11.73;;;15.10;65.30;;;;;;5113866;28;20235;-57
2022/04/23 11:13:26;;;;;;;12.85;11.85;;;14.90;65.10;;;;;;5114232;28;20203;-58
2022/04/23 11:16:13;;;;;;;14.27;13.07;;;15.00;65.20;;;;;;5112975;28;20278;-58
2022/04/23 11:18:42;;;;;;;13.70;12.40;;;14.90;64.40;;;;;;5113710;28;20207;-58
2022/04/23 11:21:12;;;;;;;14.90;13.60;;;15.00;65.10;;;;;;5113612;28;20744;-59
2022/04/23 11:23:42;;;;;;;16.43;14.00;;;15.00;65.60;;;;;;5113735;28;20457;-56
2022/04/23 11:26:11;;;;;;;14.17;12.83;;;14.90;64.50;;;;;;5113769;28;20445;-59
2022/04/23 11:28:38;;;;;;;14.43;13.02;;;14.80;64.20;;;;;;5113701;28;20453;-59
2022/04/23 11:31:18;;;;;;;14.45;13.05;;;14.60;65.70;;;;;;5112253;28;20286;-58
2022/04/23 11:33:54;;;;;;;15.85;14.38;;;14.60;65.60;;;;;;5113456;28;20199;-58
2022/04/23 11:36:25;;;;;;;15.27;13.88;;;14.70;65.80;;;;;;5113681;28;20632;-58
2022/04/23 11:38:52;;;;;;;15.85;14.25;;;14.80;65.60;;;;;;5113628;28;20203;-58
2022/04/23 11:41:30;;;;;;;14.35;13.00;;;14.90;66.50;;;;;;5113536;28;20231;-57
2022/04/23 11:43:57;;;;;;;14.20;13.00;;;14.90;65.30;;;;;;5113573;28;20674;-58
2022/04/23 11:46:25;;;;;;;15.90;14.40;;;14.80;65.90;;;;;;5112174;28;20530;-57
2022/04/23 11:48:52;;;;;;;14.93;13.63;;;15.10;64.90;;;;;;5113524;28;20441;-57
2022/04/23 11:51:21;;;;;;;14.30;13.00;;;15.30;65.40;;;;;;5113429;28;20489;-58
2022/04/23 11:53:57;;;;;;;15.40;14.10;;;15.50;63.70;;;;;;5113077;28;20203;-58
2022/04/23 11:56:32;;;;;;;16.33;14.83;;;15.50;64.90;;;;;;5113363;28;20478;-58
2022/04/23 11:59:02;;;;;;;15.00;13.70;;;15.50;64.60;;;;;;5113274;28;20516;-58
2022/04/23 12:01:31;;;;;;;15.27;13.87;;;15.40;64.50;;;;;;5112072;28;20468;-58
2022/04/23 12:03:59;;;;;;;15.37;13.97;;;15.20;64.50;;;;;;5113132;28;20912;-57
2022/04/23 12:06:27;;;;;;;14.83;13.53;;;15.30;64.70;;;;;;5112413;28;20577;-57
2022/04/23 12:09:08;;;;;;;14.97;13.60;;;15.20;66.00;;;;;;5113259;28;20441;-58
2022/04/23 12:11:35;;;;;;;12.17;11.07;;;15.40;65.10;;;;;;5113333;28;20467;-58
2022/04/23 12:14:02;;;;;;;14.30;13.00;;;15.60;64.50;;;;;;5113170;28;20532;-59
2022/04/23 12:16:38;;;;;;;15.27;13.87;;;15.70;64.90;;;;;;5111859;28;20449;-59
2022/04/23 12:19:07;;;;;;;14.93;13.67;;;15.70;64.60;;;;;;5113069;28;20548;-59
2022/04/23 12:21:35;;;;;;;14.23;12.93;;;15.80;64.30;;;;;;5113140;28;21017;-59
2022/04/23 12:24:02;;;;;;;14.90;13.53;;;16.00;63.00;;;;;;5113031;28;20483;-59
2022/04/23 12:26:35;;;;;;;15.97;14.33;;;16.00;62.70;;;;;;5113277;28;20434;-59
2022/04/23 12:43:20;;;;;;;15.47;14.17;;;16.10;64.00;;;;;;5113045;28;20497;-58
2022/04/23 12:45:47;;;;;;;14.53;13.33;;;16.20;63.20;;;;;;5111767;28;20449;-58
2022/04/23 12:48:15;;;;;;;14.87;13.67;;;16.30;63.30;;;;;;5113049;28;20795;-59
2022/04/23 12:50:42;;;;;;;15.20;13.80;;;16.30;62.60;;;;;;5112853;28;20450;-58
2022/04/23 12:53:09;;;;;;;13.37;12.23;;;16.00;63.00;;;;;;5112689;28;20920;-59
2022/04/23 12:55:37;;;;;;;13.77;12.47;;;16.00;63.20;;;;;;5113000;28;20437;-58
2022/04/23 12:58:08;;;;;;;13.80;12.70;;;15.70;64.50;;;;;;5112856;28;20784;-59
2022/04/23 13:00:38;;;;;;;14.47;13.20;;;15.60;64.00;;;;;;5111578;28;20491;-57
2022/04/23 13:03:20;;;;;;;14.57;13.37;;;15.60;63.80;;;;;;5112578;28;20485;-59
2022/04/23 13:05:48;;;;;;;14.70;13.40;;;15.60;64.10;;;;;;5112643;28;20449;-58
2022/04/23 13:11:24;;;;;;;13.60;12.30;;;15.80;63.60;;;;;;5116623;28;20458;-58
2022/04/23 13:13:47;;;;;;;13.67;12.57;;;15.80;64.90;;;;;;5116253;28;20441;-59
2022/04/23 13:16:14;;;;;;;15.47;14.07;;;15.80;64.00;;;;;;5114982;28;20449;-59
2022/04/23 13:18:40;;;;;;;13.13;12.03;;;15.50;64.60;;;;;;5116230;28;20475;-59
2022/04/23 13:21:09;;;;;;;13.70;12.60;;;15.30;66.10;;;;;;5116238;28;20580;-58